createdAt,value
2017-12-01T00:01:29.158Z,-0.70
2017-12-01T00:03:57.272Z,-0.80
2017-12-01T00:06:25.440Z,-0.70
2017-12-01T00:08:54.326Z,-0.70
2017-12-01T00:11:23.200Z,-0.70
2017-12-01T00:13:51.324Z,-0.70
2017-12-01T00:16:19.487Z,-0.70
2017-12-01T00:18:47.592Z,-0.70
2017-12-01T00:21:15.722Z,-0.70
2017-12-01T00:23:43.845Z,-0.70
2017-12-01T00:26:12.731Z,-0.70
2017-12-01T00:28:41.629Z,-0.80
2017-12-01T00:31:10.518Z,-0.80
2017-12-01T00:33:39.406Z,-0.80
2017-12-01T00:36:08.297Z,-0.80
2017-12-01T00:38:37.191Z,-0.80
2017-12-01T00:41:06.076Z,-0.80
2017-12-01T00:43:34.971Z,-0.80
2017-12-01T00:46:03.889Z,-0.80
2017-12-01T00:48:32.804Z,-0.80
2017-12-01T00:51:00.923Z,-0.80
2017-12-01T00:53:29.811Z,-0.70
2017-12-01T00:55:58.691Z,-0.70
2017-12-01T00:58:27.585Z,-0.70
2017-12-01T01:00:56.510Z,-0.60
2017-12-01T01:03:25.399Z,-0.60
2017-12-01T01:05:53.493Z,-0.60
2017-12-01T01:08:21.637Z,-0.60
2017-12-01T01:10:49.898Z,-0.60
2017-12-01T01:13:18.785Z,-0.50
2017-12-01T01:15:46.926Z,-0.50
2017-12-01T01:18:15.052Z,-0.40
2017-12-01T01:20:43.172Z,-0.40
2017-12-01T01:23:11.322Z,-0.40
2017-12-01T01:25:39.471Z,-0.40
2017-12-01T01:28:08.358Z,-0.30
2017-12-01T01:30:36.468Z,-0.30
2017-12-01T01:33:04.587Z,-0.30
2017-12-01T01:35:32.696Z,-0.30
2017-12-01T01:38:00.826Z,-0.40
2017-12-01T01:40:28.943Z,-0.30
2017-12-01T01:42:57.106Z,-0.30
2017-12-01T01:45:25.227Z,-0.30
2017-12-01T01:47:54.141Z,-0.30
2017-12-01T01:50:22.259Z,-0.30
2017-12-01T01:52:50.367Z,-0.30
2017-12-01T01:55:19.266Z,-0.30
2017-12-01T01:57:48.143Z,-0.40
2017-12-01T02:00:17.037Z,-0.40
2017-12-01T02:02:45.923Z,-0.50
2017-12-01T02:05:14.830Z,-0.50
2017-12-01T02:07:43.735Z,-0.60
2017-12-01T02:10:12.598Z,-0.70
2017-12-01T02:12:41.491Z,-0.70
2017-12-01T02:15:10.394Z,-0.80
2017-12-01T02:17:38.510Z,-0.80
2017-12-01T02:20:06.637Z,-0.80
2017-12-01T02:22:34.824Z,-0.80
2017-12-01T02:25:03.681Z,-1.00
2017-12-01T02:27:32.571Z,-1.00
2017-12-01T02:30:01.484Z,-1.10
2017-12-01T02:32:29.600Z,-1.10
2017-12-01T02:34:59.241Z,-1.10
2017-12-01T02:37:28.194Z,-1.20
2017-12-01T02:39:57.053Z,-1.20
2017-12-01T02:42:25.986Z,-1.20
2017-12-01T02:44:54.108Z,-1.30
2017-12-01T02:47:23.914Z,-1.30
2017-12-01T02:49:52.807Z,-1.30
2017-12-01T02:52:20.930Z,-1.30
2017-12-01T02:54:54.539Z,-1.40
2017-12-01T02:57:22.659Z,-1.30
2017-12-01T02:59:50.788Z,-1.30
2017-12-01T03:02:19.007Z,-1.40
2017-12-01T03:04:47.871Z,-1.40
2017-12-01T03:07:16.754Z,-1.40
2017-12-01T03:09:45.651Z,-1.40
2017-12-01T03:12:13.839Z,-1.50
2017-12-01T03:14:41.968Z,-1.50
2017-12-01T03:17:10.084Z,-1.50
2017-12-01T03:19:38.217Z,-1.50
2017-12-01T03:22:06.334Z,-1.60
2017-12-01T03:24:34.477Z,-1.60
2017-12-01T03:27:02.682Z,-1.60
2017-12-01T03:29:31.556Z,-1.60
2017-12-01T03:32:00.433Z,-1.60
2017-12-01T03:34:29.326Z,-1.70
2017-12-01T03:36:58.205Z,-1.70
2017-12-01T03:39:27.094Z,-1.70
2017-12-01T03:41:55.974Z,-1.70
2017-12-01T03:44:24.099Z,-1.70
2017-12-01T03:46:52.218Z,-1.70
2017-12-01T03:49:20.352Z,-1.70
2017-12-01T03:51:48.462Z,-1.70
2017-12-01T03:54:16.684Z,-1.70
2017-12-01T03:56:45.535Z,-1.70
2017-12-01T03:59:14.422Z,-1.70
2017-12-01T04:01:43.315Z,-1.80
2017-12-01T04:04:12.240Z,-1.70
2017-12-01T04:06:40.337Z,-1.80
2017-12-01T04:09:08.485Z,-1.70
2017-12-01T04:11:37.375Z,-1.80
2017-12-01T04:14:06.247Z,-1.80
2017-12-01T04:16:34.365Z,-1.90
2017-12-01T04:19:02.535Z,-1.80
2017-12-01T04:21:30.638Z,-1.90
2017-12-01T04:23:58.818Z,-1.90
2017-12-01T04:26:27.720Z,-1.90
2017-12-01T04:28:56.597Z,-1.90
2017-12-01T04:31:25.506Z,-1.90
2017-12-01T04:33:53.619Z,-1.90
2017-12-01T04:36:21.751Z,-1.90
2017-12-01T04:38:49.869Z,-1.90
2017-12-01T04:41:18.009Z,-1.90
2017-12-01T04:43:46.123Z,-1.90
2017-12-01T04:46:14.256Z,-1.90
2017-12-01T04:48:42.370Z,-1.80
2017-12-01T04:51:10.507Z,-1.80
2017-12-01T04:53:38.640Z,-1.90
2017-12-01T04:56:07.530Z,-1.80
2017-12-01T04:58:36.411Z,-1.80
2017-12-01T05:01:05.313Z,-1.80
2017-12-01T05:03:34.299Z,-1.90
2017-12-01T05:06:03.195Z,-1.80
2017-12-01T05:08:32.082Z,-1.90
2017-12-01T05:11:00.971Z,-1.90
2017-12-01T05:13:29.863Z,-1.90
2017-12-01T05:15:58.847Z,-1.90
2017-12-01T05:18:27.743Z,-2.00
2017-12-01T05:20:56.629Z,-1.90
2017-12-01T05:23:25.554Z,-1.90
2017-12-01T05:25:54.422Z,-2.00
2017-12-01T05:28:23.342Z,-2.00
2017-12-01T05:30:51.467Z,-2.00
2017-12-01T05:33:20.359Z,-2.00
2017-12-01T05:35:49.248Z,-2.00
2017-12-01T05:38:18.146Z,-2.00
2017-12-01T05:40:47.030Z,-2.00
2017-12-01T05:43:15.960Z,-2.00
2017-12-01T05:45:44.110Z,-2.10
2017-12-01T05:48:12.233Z,-2.00
2017-12-01T05:50:40.363Z,-2.10
2017-12-01T05:53:08.473Z,-2.00
2017-12-01T05:55:36.602Z,-2.10
2017-12-01T05:58:05.031Z,-2.10
2017-12-01T06:00:33.169Z,-2.00
2017-12-01T06:03:01.290Z,-2.10
2017-12-01T06:05:29.415Z,-2.10
2017-12-01T06:07:57.539Z,-2.10
2017-12-01T06:10:25.670Z,-2.10
2017-12-01T06:12:53.800Z,-2.10
2017-12-01T06:15:22.680Z,-2.10
2017-12-01T06:17:51.580Z,-2.10
2017-12-01T06:20:20.480Z,-2.10
2017-12-01T06:22:48.606Z,-2.10
2017-12-01T06:25:16.707Z,-2.10
2017-12-01T06:27:45.601Z,-2.10
2017-12-01T06:30:14.491Z,-2.10
2017-12-01T06:32:43.399Z,-2.10
2017-12-01T06:35:11.519Z,-2.10
2017-12-01T06:37:39.651Z,-2.10
2017-12-01T06:40:07.765Z,-2.10
2017-12-01T06:42:36.001Z,-2.10
2017-12-01T06:45:04.884Z,-2.10
2017-12-01T06:47:33.005Z,-2.10
2017-12-01T06:50:01.135Z,-2.10
2017-12-01T06:52:29.262Z,-2.10
2017-12-01T06:54:58.139Z,-2.00
2017-12-01T06:57:26.276Z,-2.00
2017-12-01T06:59:54.402Z,-2.00
2017-12-01T07:02:22.527Z,-1.90
2017-12-01T07:04:50.645Z,-1.90
2017-12-01T07:07:18.763Z,-1.90
2017-12-01T07:09:46.883Z,-1.90
2017-12-01T07:12:15.012Z,-1.90
2017-12-01T07:14:43.130Z,-1.80
2017-12-01T07:17:12.017Z,-1.70
2017-12-01T07:19:40.153Z,-1.70
2017-12-01T07:22:08.277Z,-1.60
2017-12-01T07:24:37.154Z,-1.50
2017-12-01T07:27:08.105Z,-1.50
2017-12-01T07:29:36.990Z,-1.30
2017-12-01T07:32:05.912Z,-1.20
2017-12-01T07:34:34.009Z,-1.20
2017-12-01T07:37:02.147Z,-1.10
2017-12-01T07:39:30.279Z,-1.10
2017-12-01T07:41:58.431Z,-1.00
2017-12-01T07:44:32.390Z,-0.90
2017-12-01T07:47:01.283Z,-0.80
2017-12-01T07:49:29.416Z,-0.90
2017-12-01T07:51:57.531Z,-0.80
2017-12-01T07:54:25.653Z,-0.80
2017-12-01T07:56:53.797Z,-0.70
2017-12-01T07:59:21.899Z,-0.80
2017-12-01T08:01:50.036Z,-0.70
2017-12-01T08:04:18.163Z,-0.70
2017-12-01T08:06:46.287Z,-0.60
2017-12-01T08:09:14.420Z,-0.50
2017-12-01T08:11:43.292Z,-0.40
2017-12-01T08:14:11.451Z,-0.40
2017-12-01T08:16:51.369Z,-0.40
2017-12-01T08:19:21.351Z,-0.50
2017-12-01T08:22:02.024Z,-0.60
2017-12-01T08:24:42.100Z,-0.60
2017-12-01T08:27:10.239Z,-0.60
2017-12-01T08:29:39.124Z,-0.40
2017-12-01T08:32:08.006Z,-0.30
2017-12-01T08:34:36.901Z,-0.30
2017-12-01T08:37:05.794Z,-0.30
2017-12-01T08:39:34.683Z,-0.30
2017-12-01T08:42:03.577Z,-0.20
2017-12-01T08:44:32.468Z,-0.20
2017-12-01T08:47:01.341Z,-0.10
2017-12-01T08:49:30.253Z,0.00
2017-12-01T08:51:58.399Z,0.00
2017-12-01T08:54:26.523Z,0.10
2017-12-01T08:56:54.633Z,0.20
2017-12-01T08:59:22.793Z,0.30
2017-12-01T09:01:50.907Z,0.30
2017-12-01T09:04:19.794Z,0.40
2017-12-01T09:06:48.716Z,0.50
2017-12-01T09:09:16.837Z,0.50
2017-12-01T09:11:44.945Z,0.50
2017-12-01T09:14:13.836Z,0.70
2017-12-01T09:16:42.090Z,0.60
2017-12-01T09:19:10.276Z,0.70
2017-12-01T09:21:38.369Z,0.70
2017-12-01T09:24:06.493Z,0.80
2017-12-01T09:26:34.629Z,0.80
2017-12-01T09:29:02.754Z,0.80
2017-12-01T09:31:31.674Z,0.70
2017-12-01T09:34:00.531Z,0.60
2017-12-01T09:36:29.403Z,0.70
2017-12-01T09:38:57.531Z,0.60
2017-12-01T09:41:25.639Z,0.70
2017-12-01T09:43:53.753Z,0.70
2017-12-01T09:46:21.984Z,0.70
2017-12-01T09:48:50.113Z,0.80
2017-12-01T09:51:18.237Z,0.80
2017-12-01T09:53:46.354Z,0.80
2017-12-01T09:56:14.688Z,0.90
2017-12-01T09:58:42.839Z,1.00
2017-12-01T10:01:10.936Z,1.00
2017-12-01T10:03:39.065Z,1.10
2017-12-01T10:06:07.180Z,1.10
2017-12-01T10:08:35.319Z,1.20
2017-12-01T10:11:03.446Z,1.20
2017-12-01T10:13:32.335Z,1.30
2017-12-01T10:16:00.442Z,1.30
2017-12-01T10:18:28.562Z,1.40
2017-12-01T10:20:57.464Z,1.50
2017-12-01T10:23:26.338Z,1.60
2017-12-01T10:25:55.234Z,1.70
2017-12-01T10:28:24.111Z,1.70
2017-12-01T10:30:52.239Z,1.70
2017-12-01T10:33:20.364Z,1.80
2017-12-01T10:35:48.477Z,1.80
2017-12-01T10:38:16.591Z,1.90
2017-12-01T10:40:44.718Z,1.90
2017-12-01T10:43:12.828Z,1.90
2017-12-01T10:45:40.953Z,1.80
2017-12-01T10:48:09.072Z,1.70
2017-12-01T10:50:37.211Z,1.70
2017-12-01T10:53:05.322Z,1.60
2017-12-01T10:55:33.446Z,1.60
2017-12-01T10:58:01.559Z,1.70
2017-12-01T11:00:29.712Z,1.70
2017-12-01T11:02:57.815Z,1.70
2017-12-01T11:05:25.920Z,1.70
2017-12-01T11:07:54.050Z,1.80
2017-12-01T11:10:22.182Z,1.80
2017-12-01T11:12:50.302Z,1.90
2017-12-01T11:15:18.424Z,1.90
2017-12-01T11:17:46.548Z,2.00
2017-12-01T11:20:14.659Z,2.00
2017-12-01T11:22:42.783Z,2.00
2017-12-01T11:25:10.901Z,2.00
2017-12-01T11:27:39.039Z,2.00
2017-12-01T11:30:07.155Z,2.00
2017-12-01T11:32:35.326Z,1.90
2017-12-01T11:35:04.178Z,2.00
2017-12-01T11:37:33.065Z,1.90
2017-12-01T11:40:01.185Z,1.90
2017-12-01T11:42:29.320Z,1.90
2017-12-01T11:44:58.192Z,1.90
2017-12-01T11:47:26.303Z,1.80
2017-12-01T11:49:54.430Z,1.90
2017-12-01T11:52:22.551Z,1.90
2017-12-01T11:54:50.691Z,2.00
2017-12-01T11:57:19.574Z,2.10
2017-12-01T11:59:47.685Z,2.00
2017-12-01T12:02:15.816Z,2.10
2017-12-01T12:04:43.936Z,2.10
2017-12-01T12:07:12.064Z,2.20
2017-12-01T12:09:40.168Z,2.20
2017-12-01T12:12:08.291Z,2.20
2017-12-01T12:14:36.407Z,2.00
2017-12-01T12:17:04.529Z,2.00
2017-12-01T12:19:32.643Z,2.10
2017-12-01T12:22:01.538Z,2.20
2017-12-01T12:24:29.657Z,2.20
2017-12-01T12:26:57.773Z,2.30
2017-12-01T12:29:26.653Z,2.30
2017-12-01T12:31:55.539Z,2.30
2017-12-01T12:34:24.446Z,2.30
2017-12-01T12:36:53.333Z,2.30
2017-12-01T12:39:21.420Z,2.30
2017-12-01T12:41:49.544Z,2.30
2017-12-01T12:44:17.653Z,2.30
2017-12-01T12:46:45.789Z,2.40
2017-12-01T12:49:13.921Z,2.40
2017-12-01T12:51:42.066Z,2.40
2017-12-01T12:54:10.177Z,2.30
2017-12-01T12:56:38.349Z,2.30
2017-12-01T12:59:06.437Z,2.20
2017-12-01T13:01:34.548Z,2.20
2017-12-01T13:04:03.456Z,2.30
2017-12-01T13:06:31.575Z,2.20
2017-12-01T13:08:59.699Z,2.30
2017-12-01T13:11:27.816Z,2.30
2017-12-01T13:13:55.973Z,2.30
2017-12-01T13:16:24.233Z,2.40
2017-12-01T13:18:52.359Z,2.40
2017-12-01T13:21:20.472Z,2.40
2017-12-01T13:23:48.595Z,2.40
2017-12-01T13:26:16.716Z,2.40
2017-12-01T13:28:44.872Z,2.40
2017-12-01T13:31:13.746Z,2.30
2017-12-01T13:33:42.632Z,2.30
2017-12-01T13:36:11.660Z,2.30
2017-12-01T13:38:39.762Z,2.30
2017-12-01T13:41:07.905Z,2.30
2017-12-01T13:43:36.028Z,2.40
2017-12-01T13:46:04.193Z,2.40
2017-12-01T13:48:32.330Z,2.40
2017-12-01T13:51:00.450Z,2.40
2017-12-01T13:53:28.599Z,2.50
2017-12-01T13:55:56.706Z,2.40
2017-12-01T13:58:25.589Z,2.40
2017-12-01T14:00:54.459Z,2.40
2017-12-01T14:03:22.586Z,2.30
2017-12-01T14:05:51.528Z,2.40
2017-12-01T14:08:19.653Z,2.40
2017-12-01T14:10:47.778Z,2.50
2017-12-01T14:13:15.909Z,2.50
2017-12-01T14:15:44.046Z,2.50
2017-12-01T14:18:12.176Z,2.50
2017-12-01T14:20:40.299Z,2.60
2017-12-01T14:23:08.426Z,2.50
2017-12-01T14:25:36.556Z,2.50
2017-12-01T14:28:06.051Z,2.50
2017-12-01T14:30:34.156Z,2.50
2017-12-01T14:33:02.272Z,2.50
2017-12-01T14:35:31.145Z,2.40
2017-12-01T14:37:59.270Z,2.40
2017-12-01T14:40:27.375Z,2.40
2017-12-01T14:42:55.508Z,2.30
2017-12-01T14:45:23.624Z,2.30
2017-12-01T14:47:51.744Z,2.20
2017-12-01T14:50:19.867Z,2.10
2017-12-01T14:52:48.000Z,2.10
2017-12-01T14:55:16.127Z,2.00
2017-12-01T14:57:44.246Z,1.90
2017-12-01T15:00:12.369Z,1.90
2017-12-01T15:02:41.263Z,1.70
2017-12-01T15:05:09.520Z,1.70
2017-12-01T15:07:37.654Z,1.70
2017-12-01T15:10:05.803Z,1.60
2017-12-01T15:12:33.912Z,1.50
2017-12-01T15:15:02.074Z,1.40
2017-12-01T15:17:30.298Z,1.40
2017-12-01T15:19:58.355Z,1.40
2017-12-01T15:22:26.489Z,1.30
2017-12-01T15:24:54.626Z,1.30
2017-12-01T15:27:23.506Z,1.20
2017-12-01T15:29:52.390Z,1.10
2017-12-01T15:32:20.543Z,1.10
2017-12-01T15:34:48.660Z,1.10
2017-12-01T15:37:16.788Z,1.00
2017-12-01T15:39:44.910Z,0.90
2017-12-01T15:42:13.825Z,0.80
2017-12-01T15:44:41.990Z,0.80
2017-12-01T15:47:10.067Z,0.80
2017-12-01T15:49:38.212Z,0.70
2017-12-01T15:52:06.325Z,0.70
2017-12-01T15:54:34.479Z,0.60
2017-12-01T15:57:02.736Z,0.60
2017-12-01T15:59:31.647Z,0.50
2017-12-01T16:01:59.764Z,0.50
2017-12-01T16:04:27.885Z,0.50
2017-12-01T16:06:56.034Z,0.40
2017-12-01T16:09:24.927Z,0.40
2017-12-01T16:11:53.838Z,0.40
2017-12-01T16:14:21.960Z,0.40
2017-12-01T16:16:50.170Z,0.40
2017-12-01T16:19:19.076Z,0.30
2017-12-01T16:21:47.363Z,0.30
2017-12-01T16:24:15.483Z,0.30
2017-12-01T16:26:43.620Z,0.30
2017-12-01T16:29:11.751Z,0.30
2017-12-01T16:31:40.668Z,0.30
2017-12-01T16:34:08.793Z,0.20
2017-12-01T16:36:36.946Z,0.30
2017-12-01T16:39:05.087Z,0.20
2017-12-01T16:41:33.188Z,0.20
2017-12-01T16:44:02.103Z,0.20
2017-12-01T16:46:30.250Z,0.20
2017-12-01T16:48:58.369Z,0.30
2017-12-01T16:51:27.254Z,0.20
2017-12-01T16:53:56.175Z,0.20
2017-12-01T16:56:24.315Z,0.20
2017-12-01T16:58:53.238Z,0.20
2017-12-01T17:01:21.383Z,0.20
2017-12-01T17:03:50.283Z,0.20
2017-12-01T17:06:18.406Z,0.10
2017-12-01T17:08:46.645Z,0.10
2017-12-01T17:11:14.751Z,0.10
2017-12-01T17:13:42.990Z,0.10
2017-12-01T17:16:11.879Z,0.00
2017-12-01T17:18:40.030Z,0.00
2017-12-01T17:21:08.931Z,-0.10
2017-12-01T17:23:37.077Z,-0.20
2017-12-01T17:26:05.979Z,-0.20
2017-12-01T17:28:34.880Z,-0.20
2017-12-01T17:31:03.020Z,-0.20
2017-12-01T17:33:31.189Z,-0.20
2017-12-01T17:35:59.358Z,-0.20
2017-12-01T17:38:27.471Z,-0.30
2017-12-01T17:40:55.641Z,-0.30
2017-12-01T17:43:23.777Z,-0.30
2017-12-01T17:45:52.010Z,-0.30
2017-12-01T17:48:20.137Z,-0.30
2017-12-01T17:50:48.261Z,-0.30
2017-12-01T17:53:16.401Z,-0.20
2017-12-01T17:55:45.300Z,-0.20
2017-12-01T17:58:13.434Z,-0.20
2017-12-01T18:00:41.579Z,-0.20
2017-12-01T18:03:09.719Z,-0.10
2017-12-01T18:05:37.843Z,0.00
2017-12-01T18:08:05.973Z,0.00
2017-12-01T18:10:34.110Z,0.00
2017-12-01T18:13:03.026Z,0.10
2017-12-01T18:15:31.160Z,0.00
2017-12-01T18:17:59.315Z,0.00
2017-12-01T18:20:27.429Z,0.00
2017-12-01T18:22:56.316Z,-0.10
2017-12-01T18:25:25.236Z,-0.10
2017-12-01T18:27:53.350Z,-0.10
2017-12-01T18:30:21.496Z,-0.20
2017-12-01T18:32:49.636Z,-0.20
2017-12-01T18:35:17.791Z,-0.20
2017-12-01T18:37:46.680Z,-0.30
2017-12-01T18:40:15.585Z,-0.30
2017-12-01T18:42:43.711Z,-0.30
2017-12-01T18:45:11.963Z,-0.30
2017-12-01T18:47:40.106Z,-0.30
2017-12-01T18:50:08.999Z,-0.20
2017-12-01T18:52:37.158Z,-0.30
2017-12-01T18:55:06.049Z,-0.10
2017-12-01T18:57:34.967Z,-0.10
2017-12-01T19:00:03.100Z,-0.10
2017-12-01T19:02:32.017Z,0.00
2017-12-01T19:05:00.941Z,0.00
2017-12-01T19:07:29.072Z,0.00
2017-12-01T19:09:57.991Z,0.10
2017-12-01T19:12:26.152Z,0.00
2017-12-01T19:14:54.279Z,0.10
2017-12-01T19:17:22.397Z,0.20
2017-12-01T19:19:50.527Z,0.20
2017-12-01T19:22:18.932Z,0.20
2017-12-01T19:24:47.814Z,0.30
2017-12-01T19:27:16.697Z,0.30
2017-12-01T19:29:47.332Z,0.30
2017-12-01T19:32:18.609Z,0.40
2017-12-01T19:34:47.811Z,0.40
2017-12-01T19:37:18.510Z,0.40
2017-12-01T19:39:49.939Z,0.40
2017-12-01T19:42:20.404Z,0.40
2017-12-01T19:44:49.303Z,0.50
2017-12-01T19:47:17.442Z,0.50
2017-12-01T19:49:45.554Z,0.50
2017-12-01T19:52:14.767Z,0.50
2017-12-01T19:54:42.935Z,0.50
2017-12-01T19:57:11.102Z,0.60
2017-12-01T19:59:40.587Z,0.60
2017-12-01T20:02:08.778Z,0.50
2017-12-01T20:04:36.915Z,0.60
2017-12-01T20:07:05.823Z,0.60
2017-12-01T20:09:33.965Z,0.60
2017-12-01T20:12:02.922Z,0.60
2017-12-01T20:14:31.071Z,0.60
2017-12-01T20:16:59.210Z,0.60
2017-12-01T20:19:28.152Z,0.70
2017-12-01T20:21:56.287Z,0.60
2017-12-01T20:24:24.420Z,0.70
2017-12-01T20:26:54.056Z,0.70
2017-12-01T20:29:22.997Z,0.70
2017-12-01T20:31:51.154Z,0.70
2017-12-01T20:34:19.321Z,0.70
2017-12-01T20:36:47.462Z,0.70
2017-12-01T20:39:16.368Z,0.70
2017-12-01T20:41:44.504Z,0.70
2017-12-01T20:44:12.675Z,0.70
2017-12-01T20:46:40.809Z,0.70
2017-12-01T20:49:08.974Z,0.70
2017-12-01T20:51:37.171Z,0.60
2017-12-01T20:54:05.577Z,0.60
2017-12-01T20:56:33.786Z,0.60
2017-12-01T20:59:01.942Z,0.60
2017-12-01T21:01:30.095Z,0.60
2017-12-01T21:03:58.243Z,0.60
2017-12-01T21:06:26.390Z,0.50
2017-12-01T21:08:54.527Z,0.50
2017-12-01T21:11:23.450Z,0.40
2017-12-01T21:13:51.595Z,0.40
2017-12-01T21:16:20.511Z,0.40
2017-12-01T21:18:48.708Z,0.30
2017-12-01T21:21:16.960Z,0.30
2017-12-01T21:23:45.101Z,0.30
2017-12-01T21:26:14.057Z,0.20
2017-12-01T21:28:42.299Z,0.20
2017-12-01T21:31:10.456Z,0.20
2017-12-01T21:33:38.611Z,0.20
2017-12-01T21:36:06.749Z,0.20
2017-12-01T21:38:34.885Z,0.10
2017-12-01T21:41:03.038Z,0.20
2017-12-01T21:43:31.950Z,0.20
2017-12-01T21:46:00.074Z,0.10
2017-12-01T21:48:28.206Z,0.20
2017-12-01T21:50:56.368Z,0.20
2017-12-01T21:53:24.555Z,0.20
2017-12-01T21:55:52.706Z,0.30
2017-12-01T21:58:21.606Z,0.30
2017-12-01T22:00:51.224Z,0.30
2017-12-01T22:03:19.341Z,0.30
2017-12-01T22:05:47.492Z,0.40
2017-12-01T22:08:15.794Z,0.40
2017-12-01T22:10:43.923Z,0.40
2017-12-01T22:13:12.072Z,0.40
2017-12-01T22:15:40.982Z,0.40
2017-12-01T22:18:09.102Z,0.40
2017-12-01T22:20:37.285Z,0.40
2017-12-01T22:23:05.618Z,0.40
2017-12-01T22:25:33.882Z,0.40
2017-12-01T22:28:02.814Z,0.40
2017-12-01T22:30:30.946Z,0.40
2017-12-01T22:32:59.077Z,0.40
2017-12-01T22:35:28.030Z,0.40
2017-12-01T22:37:56.866Z,0.40
2017-12-01T22:40:25.787Z,0.40
2017-12-01T22:42:53.888Z,0.40
2017-12-01T22:45:22.924Z,0.40
2017-12-01T22:47:51.040Z,0.40
2017-12-01T22:50:19.171Z,0.40
2017-12-01T22:52:50.972Z,0.40
2017-12-01T22:55:19.088Z,0.40
2017-12-01T22:57:47.284Z,0.50
2017-12-01T23:00:16.153Z,0.50
2017-12-01T23:02:45.129Z,0.50
2017-12-01T23:05:13.203Z,0.50
2017-12-01T23:07:41.608Z,0.50
2017-12-01T23:10:10.478Z,0.50
2017-12-01T23:12:39.396Z,0.50
2017-12-01T23:15:07.559Z,0.50
2017-12-01T23:17:35.692Z,0.50
2017-12-01T23:20:03.813Z,0.50
2017-12-01T23:22:31.962Z,0.50
2017-12-01T23:25:01.232Z,0.50
2017-12-01T23:27:30.502Z,0.50
2017-12-01T23:29:58.628Z,0.50
2017-12-01T23:32:27.528Z,0.40
2017-12-01T23:34:57.376Z,0.40
2017-12-01T23:37:25.510Z,0.40
2017-12-01T23:39:54.399Z,0.40
2017-12-01T23:42:23.298Z,0.40
2017-12-01T23:44:52.283Z,0.40
2017-12-01T23:47:21.203Z,0.40
2017-12-01T23:49:49.321Z,0.40
2017-12-01T23:52:18.262Z,0.40
2017-12-01T23:54:46.459Z,0.30
2017-12-01T23:57:14.573Z,0.40
2017-12-01T23:59:43.457Z,0.40
